Time;durP1;ratioP1;P1;durP2;ratioP2;P2;SDS_P1;SDS_P2;PMS_P1;PMS_P2;Temp;Humidity;BMP_temperature;BMP_pressure;BME280_temperature;BME280_humidity;BME280_pressure;Samples;Min_cycle;Max_cycle;Signal;HPM_P1;HPM_P2
2022/05/26 00:02:03;;;;;;;1.85;1.63;;;19.40;58.20;;;;;;4955674;28;20035;-77
2022/05/26 00:04:29;;;;;;;2.03;1.60;;;19.30;58.20;;;;;;4972633;28;20035;-75
2022/05/26 00:06:58;;;;;;;1.70;1.58;;;19.40;58.30;;;;;;4963600;28;20045;-75
2022/05/26 00:09:25;;;;;;;2.47;1.45;;;19.40;58.30;;;;;;4963702;28;20086;-76
2022/05/26 00:11:51;;;;;;;2.40;1.67;;;19.30;58.30;;;;;;4972750;28;20085;-76
2022/05/26 00:14:17;;;;;;;2.20;1.60;;;19.30;58.40;;;;;;4971931;28;20452;-76
2022/05/26 00:16:45;;;;;;;1.88;1.70;;;19.30;58.40;;;;;;4973078;28;20050;-75
2022/05/26 00:19:13;;;;;;;2.25;1.63;;;19.30;58.50;;;;;;4963551;28;20057;-75
2022/05/26 00:21:39;;;;;;;2.42;1.80;;;19.30;58.40;;;;;;4973277;28;20015;-75
2022/05/26 00:24:05;;;;;;;2.05;1.85;;;19.30;58.40;;;;;;4963187;28;20034;-76
2022/05/26 00:26:31;;;;;;;2.75;2.20;;;19.30;58.40;;;;;;4973137;28;20062;-75
2022/05/26 00:28:57;;;;;;;2.78;1.98;;;19.30;58.50;;;;;;4955303;28;20066;-75
2022/05/26 00:31:24;;;;;;;3.30;2.10;;;19.30;58.50;;;;;;4952253;28;20469;-75
2022/05/26 00:33:49;;;;;;;2.38;1.88;;;19.30;58.50;;;;;;4967592;28;20041;-74
2022/05/26 00:36:17;;;;;;;2.78;2.30;;;19.30;58.50;;;;;;4971111;28;20109;-75
2022/05/26 00:38:43;;;;;;;3.10;2.20;;;19.30;58.60;;;;;;4955685;28;20035;-75
2022/05/26 00:41:13;;;;;;;2.42;2.13;;;19.20;58.60;;;;;;4971223;28;20085;-75
2022/05/26 00:43:43;;;;;;;2.38;2.15;;;19.20;58.60;;;;;;4972700;28;20021;-75
2022/05/26 00:46:32;;;;;;;2.65;2.25;;;19.20;58.60;;;;;;4963170;28;20050;-74
2022/05/26 00:49:01;;;;;;;2.88;2.08;;;19.20;58.70;;;;;;4960832;28;20031;-75
2022/05/26 00:51:31;;;;;;;2.85;2.17;;;19.20;58.70;;;;;;4961093;28;20039;-75
2022/05/26 00:54:01;;;;;;;2.38;1.98;;;19.20;58.70;;;;;;4963082;28;20030;-75
2022/05/26 00:56:45;;;;;;;3.25;2.60;;;19.20;58.80;;;;;;4979394;28;20034;-75
2022/05/26 00:59:17;;;;;;;3.30;2.30;;;19.20;58.90;;;;;;4971891;28;20057;-75
2022/05/26 01:01:44;;;;;;;3.10;2.40;;;19.20;58.80;;;;;;4962344;28;20090;-75
2022/05/26 01:04:15;;;;;;;2.53;2.20;;;19.20;58.80;;;;;;4951508;28;20039;-75
2022/05/26 01:06:45;;;;;;;2.67;2.30;;;19.20;58.90;;;;;;4970214;28;20027;-75
2022/05/26 01:09:11;;;;;;;3.55;2.72;;;19.20;58.90;;;;;;4971856;28;20015;-75
2022/05/26 01:11:40;;;;;;;3.33;2.55;;;19.20;59.00;;;;;;4972302;28;20035;-75
2022/05/26 01:14:23;;;;;;;3.13;2.60;;;19.10;58.90;;;;;;4963206;28;20406;-74
2022/05/26 01:17:03;;;;;;;3.17;2.55;;;19.10;59.00;;;;;;4971525;28;20046;-75
2022/05/26 01:19:53;;;;;;;3.38;2.53;;;19.10;59.00;;;;;;4970626;28;20035;-75
2022/05/26 01:22:45;;;;;;;2.63;2.17;;;19.10;59.00;;;;;;4969434;28;20031;-75
2022/05/26 01:25:47;;;;;;;3.30;2.60;;;19.10;59.10;;;;;;4970066;28;20031;-75
2022/05/26 01:28:38;;;;;;;3.30;2.30;;;19.10;59.20;;;;;;4971611;28;20027;-74
2022/05/26 01:31:41;;;;;;;3.08;2.42;;;19.10;59.10;;;;;;4971207;28;20043;-75
2022/05/26 01:34:25;;;;;;;2.95;2.55;;;19.00;59.20;;;;;;4961894;28;20034;-75
2022/05/26 01:36:58;;;;;;;2.67;2.37;;;19.00;59.10;;;;;;4962208;28;20030;-75
2022/05/26 01:39:41;;;;;;;3.38;2.45;;;19.00;59.20;;;;;;4961086;28;20287;-75
2022/05/26 01:42:40;;;;;;;3.25;2.30;;;19.00;59.30;;;;;;4971069;28;20046;-75
2022/05/26 01:45:23;;;;;;;2.70;2.13;;;19.00;59.30;;;;;;4943221;29;20059;-75
2022/05/26 01:48:17;;;;;;;2.83;2.25;;;19.00;59.30;;;;;;4963186;28;20440;-74
2022/05/26 01:50:47;;;;;;;3.42;2.42;;;19.00;59.40;;;;;;4958162;28;20058;-75
2022/05/26 01:53:38;;;;;;;2.67;2.45;;;19.00;59.30;;;;;;4966108;28;20114;-76
2022/05/26 01:56:31;;;;;;;3.33;2.70;;;19.00;59.40;;;;;;4964729;28;20042;-75
2022/05/26 01:59:10;;;;;;;3.05;2.45;;;18.90;59.40;;;;;;4978414;28;20117;-75
2022/05/26 02:01:40;;;;;;;2.78;2.28;;;19.00;59.40;;;;;;4969874;28;20035;-75
2022/05/26 02:04:12;;;;;;;3.55;2.67;;;18.90;59.40;;;;;;4950618;29;20027;-75
2022/05/26 02:06:44;;;;;;;3.20;2.35;;;18.90;59.40;;;;;;4951633;28;20034;-75
2022/05/26 02:09:13;;;;;;;3.35;2.45;;;18.90;59.40;;;;;;4961095;28;20561;-75
2022/05/26 02:12:05;;;;;;;3.53;2.65;;;18.90;59.40;;;;;;4977907;28;20105;-75
2022/05/26 02:14:36;;;;;;;3.10;2.58;;;18.90;59.50;;;;;;4974548;28;20162;-75
2022/05/26 02:17:22;;;;;;;3.17;2.40;;;18.90;59.40;;;;;;4952593;28;20106;-75
2022/05/26 02:19:53;;;;;;;4.85;2.80;;;18.90;59.50;;;;;;4960325;28;20030;-76
2022/05/26 02:22:31;;;;;;;3.15;2.70;;;18.90;59.50;;;;;;4934440;29;20518;-75
2022/05/26 02:25:11;;;;;;;3.67;2.70;;;18.90;59.50;;;;;;4951103;29;20035;-74
2022/05/26 02:27:38;;;;;;;3.15;2.38;;;18.90;59.50;;;;;;4950619;29;20396;-75
2022/05/26 02:30:05;;;;;;;3.40;2.63;;;18.90;59.60;;;;;;4950371;29;20522;-75
2022/05/26 02:32:36;;;;;;;2.90;2.50;;;18.90;59.60;;;;;;4950739;29;20027;-75
2022/05/26 02:35:06;;;;;;;3.88;2.97;;;18.90;59.60;;;;;;4950571;29;20051;-75
2022/05/26 02:37:33;;;;;;;3.30;2.45;;;18.90;59.60;;;;;;4950791;29;20043;-75
2022/05/26 02:40:00;;;;;;;3.08;2.30;;;18.90;59.60;;;;;;4951861;28;20118;-75
2022/05/26 02:42:27;;;;;;;4.55;2.75;;;18.90;59.60;;;;;;4919050;29;20039;-74
2022/05/26 02:44:53;;;;;;;3.85;2.50;;;18.90;59.60;;;;;;4919051;29;20030;-75
2022/05/26 02:47:24;;;;;;;4.13;2.70;;;18.90;59.60;;;;;;4934420;29;20043;-74
2022/05/26 02:50:08;;;;;;;3.53;2.70;;;18.90;59.70;;;;;;4934518;29;20062;-75
2022/05/26 02:52:52;;;;;;;3.28;2.30;;;18.80;59.60;;;;;;4950646;29;20035;-74
2022/05/26 02:55:27;;;;;;;3.50;2.53;;;18.90;59.70;;;;;;4951792;28;20106;-76
2022/05/26 02:58:23;;;;;;;2.58;2.38;;;18.80;59.70;;;;;;4950973;28;20153;-75
2022/05/26 03:00:59;;;;;;;3.08;2.45;;;18.80;59.70;;;;;;4938412;29;20023;-74
2022/05/26 03:03:35;;;;;;;3.67;2.58;;;18.80;59.70;;;;;;4938246;29;20027;-74
2022/05/26 03:06:18;;;;;;;4.50;3.03;;;18.80;59.80;;;;;;4953965;29;20027;-74
2022/05/26 03:08:46;;;;;;;4.03;2.70;;;18.80;59.70;;;;;;4955416;29;20038;-75
2022/05/26 03:11:24;;;;;;;3.97;2.80;;;18.80;59.70;;;;;;4954567;29;20027;-74
2022/05/26 03:13:50;;;;;;;4.22;2.72;;;18.80;59.90;;;;;;4953998;29;20027;-74
2022/05/26 03:16:17;;;;;;;4.45;2.95;;;18.80;59.80;;;;;;4953031;29;20488;-75
2022/05/26 03:18:43;;;;;;;4.10;2.92;;;18.80;59.80;;;;;;4953751;29;20023;-76
2022/05/26 03:21:10;;;;;;;4.05;2.90;;;18.80;59.80;;;;;;4954853;28;20098;-76
2022/05/26 03:23:37;;;;;;;4.20;2.58;;;18.70;59.80;;;;;;4953777;29;20045;-75
2022/05/26 03:26:04;;;;;;;4.63;2.58;;;18.70;59.80;;;;;;4953544;29;20019;-75
2022/05/26 03:28:31;;;;;;;5.43;3.08;;;18.70;59.80;;;;;;4954842;28;20062;-75
2022/05/26 03:30:58;;;;;;;3.63;2.83;;;18.70;59.80;;;;;;4937788;29;20050;-75
2022/05/26 03:33:24;;;;;;;5.78;2.97;;;18.70;59.90;;;;;;4953479;29;20428;-76
2022/05/26 03:41:25;;;;;;;4.32;2.70;;;18.70;60.50;;;;;;4953107;29;20083;-76
2022/05/26 03:43:59;;;;;;;4.00;2.60;;;18.80;60.00;;;;;;4953216;29;20055;-75
2022/05/26 03:46:26;;;;;;;;;;;18.70;60.00;;;;;;4953383;29;20071;-76
2022/05/26 03:48:51;;;;;;;3.70;2.40;;;18.70;59.90;;;;;;4955093;28;19914;-75
2022/05/26 03:51:17;;;;;;;3.00;2.22;;;18.70;59.80;;;;;;4954402;28;20034;-75
2022/05/26 03:53:43;;;;;;;4.75;2.72;;;18.70;60.00;;;;;;4936972;29;20054;-75
2022/05/26 03:56:09;;;;;;;5.63;2.70;;;18.70;60.00;;;;;;4952808;29;20043;-75
2022/05/26 03:58:37;;;;;;;4.90;2.38;;;18.70;60.10;;;;;;4954391;28;20027;-75
2022/05/26 04:01:05;;;;;;;4.50;2.50;;;18.70;60.10;;;;;;4937496;29;20039;-75
2022/05/26 04:03:31;;;;;;;4.40;2.70;;;18.70;60.10;;;;;;4953060;29;20028;-75
2022/05/26 04:05:57;;;;;;;4.40;2.55;;;18.70;60.10;;;;;;4937411;29;20062;-74
2022/05/26 04:08:23;;;;;;;4.03;2.70;;;18.70;60.10;;;;;;4952797;29;20427;-74
2022/05/26 04:10:48;;;;;;;4.38;2.72;;;18.70;60.10;;;;;;4952011;28;20031;-75
2022/05/26 04:13:14;;;;;;;3.60;2.58;;;18.70;60.10;;;;;;4920645;29;20090;-76
2022/05/26 04:15:40;;;;;;;4.47;2.40;;;18.60;60.10;;;;;;4952437;29;20055;-75
2022/05/26 04:18:06;;;;;;;3.63;2.55;;;18.60;60.10;;;;;;4952669;29;20467;-75
2022/05/26 04:20:32;;;;;;;3.92;2.47;;;18.60;60.10;;;;;;4952412;29;20445;-76
2022/05/26 04:22:58;;;;;;;3.97;2.13;;;18.60;60.10;;;;;;4952815;29;20019;-75
2022/05/26 04:25:25;;;;;;;3.60;2.17;;;18.60;60.20;;;;;;4952551;29;20372;-75
2022/05/26 04:27:54;;;;;;;3.92;2.53;;;18.60;60.20;;;;;;4952483;29;20035;-76
2022/05/26 04:30:23;;;;;;;3.83;2.35;;;18.60;60.20;;;;;;4952412;28;20078;-74
2022/05/26 04:32:49;;;;;;;5.25;2.80;;;18.60;60.20;;;;;;4953467;28;20019;-75
2022/05/26 04:35:14;;;;;;;4.85;2.65;;;18.60;60.20;;;;;;4936385;29;20043;-75
2022/05/26 04:37:41;;;;;;;4.13;2.30;;;18.60;60.20;;;;;;4952308;29;20384;-75
2022/05/26 04:40:09;;;;;;;3.78;2.47;;;18.60;60.20;;;;;;4952458;29;20031;-75
2022/05/26 04:42:36;;;;;;;4.03;2.40;;;18.60;60.30;;;;;;4935872;29;20043;-76
2022/05/26 04:45:04;;;;;;;3.80;2.13;;;18.60;60.30;;;;;;4952173;29;20031;-76
2022/05/26 04:47:29;;;;;;;4.68;2.60;;;18.60;60.30;;;;;;4951651;29;20039;-76
2022/05/26 04:49:56;;;;;;;3.65;2.40;;;18.50;60.30;;;;;;4952318;29;20029;-75
2022/05/26 04:52:24;;;;;;;4.45;2.42;;;18.60;60.40;;;;;;4952036;29;20078;-75
2022/05/26 04:54:52;;;;;;;5.13;2.45;;;18.50;60.30;;;;;;4953144;28;20023;-75
2022/05/26 04:57:22;;;;;;;5.10;2.63;;;18.50;60.40;;;;;;4951371;29;20078;-77
2022/05/26 04:59:48;;;;;;;4.47;2.08;;;18.50;60.40;;;;;;4952074;29;20086;-75
2022/05/26 05:02:16;;;;;;;4.63;2.50;;;18.60;60.40;;;;;;4952305;29;20036;-76
2022/05/26 05:04:44;;;;;;;3.55;2.33;;;18.50;60.40;;;;;;4951998;29;20114;-75
2022/05/26 05:07:10;;;;;;;4.90;2.47;;;18.60;60.50;;;;;;4951770;28;20062;-76
2022/05/26 05:09:38;;;;;;;4.13;2.35;;;18.50;60.50;;;;;;4951585;29;20428;-77
2022/05/26 05:12:04;;;;;;;4.53;2.25;;;18.50;60.50;;;;;;4952736;29;20035;-75
2022/05/26 05:14:38;;;;;;;4.13;2.15;;;18.50;60.50;;;;;;4951791;29;20852;-75
2022/05/26 05:17:04;;;;;;;3.70;2.22;;;18.60;60.60;;;;;;4952825;28;20051;-75
2022/05/26 05:19:29;;;;;;;4.85;2.22;;;18.60;60.50;;;;;;4935580;29;20027;-75
2022/05/26 05:22:05;;;;;;;3.60;2.03;;;18.50;60.50;;;;;;4951494;28;20042;-75
2022/05/26 05:24:40;;;;;;;4.50;2.20;;;18.50;60.60;;;;;;4951065;29;20031;-75
2022/05/26 05:27:29;;;;;;;4.50;2.10;;;18.50;60.70;;;;;;4951306;29;20035;-76
2022/05/26 05:30:01;;;;;;;3.58;2.10;;;18.50;60.80;;;;;;4952558;29;20039;-75
2022/05/26 05:32:37;;;;;;;4.60;2.28;;;18.60;60.70;;;;;;4951479;29;20423;-75
2022/05/26 05:35:11;;;;;;;3.90;2.17;;;18.50;60.70;;;;;;4951181;29;20379;-76
2022/05/26 05:37:37;;;;;;;5.95;2.45;;;18.50;60.80;;;;;;4951035;29;20379;-76
2022/05/26 05:40:04;;;;;;;5.32;2.20;;;18.60;60.80;;;;;;4951074;29;20038;-75
2022/05/26 05:42:30;;;;;;;5.20;2.30;;;18.50;60.80;;;;;;4951609;29;20111;-76
2022/05/26 05:44:58;;;;;;;4.57;2.42;;;18.50;60.80;;;;;;4952593;28;20106;-75
2022/05/26 05:47:24;;;;;;;4.97;2.53;;;18.60;60.90;;;;;;4951990;28;20035;-76
2022/05/26 05:49:50;;;;;;;3.35;1.98;;;18.60;60.90;;;;;;4952168;28;20112;-75
2022/05/26 05:52:20;;;;;;;5.70;2.42;;;18.60;60.90;;;;;;4951002;29;20451;-76
2022/05/26 05:54:45;;;;;;;4.40;2.03;;;18.60;61.00;;;;;;4951937;28;20471;-75
2022/05/26 05:57:11;;;;;;;4.28;2.33;;;18.60;60.90;;;;;;4952831;28;20111;-75
2022/05/26 05:59:37;;;;;;;4.38;2.05;;;18.60;61.00;;;;;;4950665;29;20023;-76
2022/05/26 06:02:03;;;;;;;4.47;2.30;;;18.60;61.00;;;;;;4952312;28;20345;-76
2022/05/26 06:04:29;;;;;;;5.32;2.63;;;18.70;61.10;;;;;;4951812;28;20027;-75
2022/05/26 06:06:55;;;;;;;2.78;1.85;;;18.60;61.00;;;;;;4934999;29;20043;-75
2022/05/26 06:09:21;;;;;;;3.00;2.00;;;18.70;61.10;;;;;;4934908;29;20054;-75
2022/05/26 06:11:48;;;;;;;4.10;1.90;;;18.70;61.10;;;;;;4919394;29;20027;-74
2022/05/26 06:14:14;;;;;;;5.28;2.60;;;18.60;61.10;;;;;;4951107;29;20463;-75
2022/05/26 06:16:40;;;;;;;5.28;2.38;;;18.60;61.10;;;;;;4950147;29;20377;-75
2022/05/26 06:19:06;;;;;;;5.60;2.22;;;18.70;61.20;;;;;;4950882;29;20038;-75
2022/05/26 06:21:35;;;;;;;3.97;1.98;;;18.70;61.20;;;;;;4951739;28;20039;-76
2022/05/26 06:24:01;;;;;;;3.78;2.20;;;18.70;61.20;;;;;;4950772;29;20034;-76
2022/05/26 06:26:28;;;;;;;4.10;2.03;;;18.70;61.20;;;;;;4952068;29;20078;-75
2022/05/26 06:31:39;;;;;;;3.95;2.05;;;18.80;61.30;;;;;;4950350;29;20106;-74
2022/05/26 06:39:34;;;;;;;3.92;2.15;;;18.80;61.20;;;;;;4954903;29;20039;-75
2022/05/26 06:42:06;;;;;;;4.03;2.08;;;18.80;61.20;;;;;;4954369;29;20019;-76
2022/05/26 06:44:38;;;;;;;3.33;1.92;;;18.80;61.30;;;;;;4953925;29;20118;-76
2022/05/26 06:47:06;;;;;;;2.70;1.80;;;18.90;61.40;;;;;;4954045;29;20039;-76
2022/05/26 06:49:34;;;;;;;4.28;2.00;;;18.90;61.40;;;;;;4954930;29;20027;-75
2022/05/26 06:52:00;;;;;;;5.63;2.33;;;18.90;61.40;;;;;;4954185;29;20068;-75
2022/05/26 06:54:30;;;;;;;2.83;1.80;;;18.90;61.40;;;;;;4955327;28;20468;-75
2022/05/26 06:56:56;;;;;;;3.42;1.60;;;18.90;61.40;;;;;;4953890;29;20043;-76
2022/05/26 06:59:21;;;;;;;3.30;1.88;;;18.90;61.40;;;;;;4938180;29;20113;-76
2022/05/26 07:01:47;;;;;;;4.10;1.98;;;19.00;61.50;;;;;;4954037;29;20031;-76
2022/05/26 07:04:13;;;;;;;5.22;2.10;;;19.00;61.40;;;;;;4955318;28;20036;-75
2022/05/26 07:06:39;;;;;;;5.65;2.00;;;19.00;61.40;;;;;;4954848;29;20070;-75
2022/05/26 07:09:04;;;;;;;4.07;2.30;;;19.00;61.40;;;;;;4938220;29;20031;-76
2022/05/26 07:11:32;;;;;;;3.85;2.03;;;19.10;61.50;;;;;;4937499;29;20036;-76
2022/05/26 07:13:58;;;;;;;4.63;1.88;;;19.10;61.50;;;;;;4953568;29;20051;-77
2022/05/26 07:16:23;;;;;;;4.50;1.90;;;19.10;61.50;;;;;;4953372;29;20099;-76
2022/05/26 07:18:53;;;;;;;3.28;2.03;;;19.10;61.40;;;;;;4953686;29;20031;-75
2022/05/26 07:21:19;;;;;;;3.88;2.00;;;19.10;61.40;;;;;;4953899;29;20042;-75
2022/05/26 07:23:45;;;;;;;4.78;1.92;;;19.20;61.40;;;;;;4954057;29;20027;-75
2022/05/26 07:26:12;;;;;;;4.43;1.92;;;19.20;61.40;;;;;;4922160;29;20067;-76
2022/05/26 07:28:41;;;;;;;2.88;1.63;;;19.20;61.40;;;;;;4953001;28;20019;-76
2022/05/26 07:31:12;;;;;;;3.28;1.63;;;19.30;61.40;;;;;;4922677;29;20533;-76
2022/05/26 07:33:38;;;;;;;3.83;1.67;;;19.30;61.30;;;;;;4953728;29;20041;-75
2022/05/26 07:36:05;;;;;;;2.83;1.60;;;19.30;61.20;;;;;;4938052;29;20110;-76
2022/05/26 07:41:25;;;;;;;3.37;1.70;;;19.40;61.20;;;;;;4953369;29;20106;-76
2022/05/26 07:43:58;;;;;;;4.85;1.90;;;19.40;61.20;;;;;;4937512;28;20034;-76
2022/05/26 07:46:25;;;;;;;3.67;1.90;;;19.40;61.20;;;;;;4952674;29;20110;-75
2022/05/26 07:48:52;;;;;;;2.28;1.42;;;19.50;61.10;;;;;;4954741;28;20146;-75
2022/05/26 07:51:21;;;;;;;2.90;1.77;;;19.50;61.10;;;;;;4953073;29;20149;-75
2022/05/26 07:53:47;;;;;;;3.53;2.22;;;19.50;61.10;;;;;;4952931;29;20118;-77
2022/05/26 07:56:14;;;;;;;1.75;1.30;;;19.60;61.00;;;;;;4937164;29;20034;-76
2022/05/26 07:58:39;;;;;;;2.60;1.42;;;19.60;61.00;;;;;;4952765;29;20033;-76
2022/05/26 08:01:07;;;;;;;3.72;1.70;;;19.70;61.00;;;;;;4921651;29;20125;-76
2022/05/26 08:03:34;;;;;;;3.38;1.73;;;19.70;60.90;;;;;;4936907;29;20031;-76
2022/05/26 08:06:01;;;;;;;2.60;1.40;;;19.80;60.90;;;;;;4937271;29;20078;-76
2022/05/26 08:08:27;;;;;;;2.22;1.35;;;19.80;60.80;;;;;;4953023;29;20040;-76
2022/05/26 08:10:53;;;;;;;2.00;1.30;;;19.80;60.70;;;;;;4936576;29;20508;-76
2022/05/26 08:13:19;;;;;;;2.35;1.55;;;19.90;60.70;;;;;;4936435;29;20031;-76
2022/05/26 08:15:46;;;;;;;2.25;1.35;;;19.90;60.60;;;;;;4937288;29;20380;-75
2022/05/26 08:18:12;;;;;;;2.75;1.50;;;20.00;60.60;;;;;;4953014;29;20047;-77
2022/05/26 08:20:38;;;;;;;3.30;1.50;;;20.00;60.50;;;;;;4952797;29;20090;-75
2022/05/26 08:23:04;;;;;;;2.10;1.15;;;20.10;60.50;;;;;;4952417;29;20383;-77
2022/05/26 08:25:29;;;;;;;2.38;1.50;;;20.10;60.40;;;;;;4936549;29;20039;-75
2022/05/26 08:27:55;;;;;;;1.67;1.30;;;20.10;60.40;;;;;;4951956;29;20090;-77
2022/05/26 08:30:21;;;;;;;2.20;1.30;;;20.20;60.30;;;;;;4952368;29;20050;-75
2022/05/26 08:32:51;;;;;;;2.88;1.40;;;20.20;60.30;;;;;;4953227;28;20051;-75
2022/05/26 08:35:17;;;;;;;3.30;1.45;;;20.30;60.30;;;;;;4952323;29;20030;-76
2022/05/26 08:37:43;;;;;;;1.40;1.30;;;20.30;60.30;;;;;;4936248;29;20042;-76
2022/05/26 08:40:31;;;;;;;1.67;1.17;;;20.40;60.30;;;;;;4920680;29;20031;-76
2022/05/26 08:42:57;;;;;;;1.42;1.10;;;20.40;60.30;;;;;;4952003;28;20670;-75
2022/05/26 08:45:23;;;;;;;1.60;1.10;;;20.40;60.20;;;;;;4951892;29;20023;-76
2022/05/26 08:47:51;;;;;;;1.67;1.30;;;20.50;60.20;;;;;;4951948;29;20069;-75
2022/05/26 08:50:27;;;;;;;3.67;1.40;;;20.50;60.80;;;;;;4920389;29;20031;-76
2022/05/26 08:53:00;;;;;;;2.05;1.40;;;20.60;60.20;;;;;;4952749;29;20030;-75
2022/05/26 08:55:42;;;;;;;1.25;1.10;;;20.60;60.00;;;;;;4952903;28;20070;-75
2022/05/26 08:58:17;;;;;;;2.17;1.23;;;20.60;60.00;;;;;;4951824;29;20073;-75
2022/05/26 09:00:45;;;;;;;2.05;1.20;;;20.70;60.00;;;;;;4951783;29;20031;-75
2022/05/26 09:03:27;;;;;;;2.38;1.30;;;20.80;59.80;;;;;;4953022;28;20027;-76
2022/05/26 09:06:18;;;;;;;2.20;1.10;;;20.80;59.90;;;;;;4951590;29;20150;-75
2022/05/26 09:14:25;;;;;;;2.70;1.50;;;20.90;59.70;;;;;;4952816;28;20034;-77
2022/05/26 09:17:00;;;;;;;2.42;1.35;;;20.90;59.70;;;;;;4951460;29;20047;-75
2022/05/26 09:19:48;;;;;;;2.45;1.20;;;20.90;59.60;;;;;;4951565;29;20547;-76
2022/05/26 09:22:32;;;;;;;1.88;1.30;;;21.00;59.70;;;;;;4951265;29;20050;-75
2022/05/26 09:24:59;;;;;;;1.67;1.10;;;21.00;59.70;;;;;;4951145;29;20113;-76
2022/05/26 09:27:36;;;;;;;2.28;1.35;;;21.10;59.50;;;;;;4952756;28;20035;-75
2022/05/26 09:30:21;;;;;;;1.20;1.10;;;21.10;59.60;;;;;;4951327;29;20038;-76
2022/05/26 09:32:47;;;;;;;1.63;1.00;;;21.20;59.50;;;;;;4951133;29;20042;-76
2022/05/26 09:35:18;;;;;;;2.45;1.27;;;21.20;59.40;;;;;;4950876;29;20106;-77
2022/05/26 09:37:46;;;;;;;1.67;1.27;;;21.30;59.40;;;;;;4951339;29;20078;-75
2022/05/26 09:40:15;;;;;;;1.10;1.00;;;21.30;59.30;;;;;;4951226;29;20460;-76
2022/05/26 09:42:43;;;;;;;1.90;1.27;;;21.40;59.30;;;;;;4952835;29;20163;-75
2022/05/26 09:45:16;;;;;;;1.27;0.90;;;21.40;59.30;;;;;;4935157;29;20023;-76
2022/05/26 09:47:58;;;;;;;2.45;1.30;;;21.40;59.30;;;;;;4950736;29;20035;-77
2022/05/26 09:50:33;;;;;;;1.05;0.93;;;21.50;59.30;;;;;;4951205;29;20081;-76
2022/05/26 09:53:00;;;;;;;2.10;1.25;;;21.50;59.20;;;;;;4952397;28;20027;-76
2022/05/26 09:55:32;;;;;;;2.20;1.15;;;21.60;59.10;;;;;;4951966;28;20035;-76
2022/05/26 09:58:05;;;;;;;1.77;1.10;;;21.60;59.10;;;;;;4950572;29;20038;-76
2022/05/26 10:00:37;;;;;;;1.67;0.98;;;21.70;59.10;;;;;;4952195;28;20099;-75
2022/05/26 10:03:18;;;;;;;2.08;1.30;;;21.70;59.00;;;;;;4951092;29;20035;-75
2022/05/26 10:06:25;;;;;;;2.90;1.33;;;21.80;59.00;;;;;;4952267;28;20027;-75
2022/05/26 10:09:07;;;;;;;2.00;1.08;;;21.80;59.00;;;;;;4952312;28;20146;-76
2022/05/26 10:12:07;;;;;;;1.10;1.00;;;21.90;58.90;;;;;;4955701;29;20102;-75
2022/05/26 10:14:42;;;;;;;2.05;1.15;;;21.90;58.90;;;;;;4955249;29;20035;-76
2022/05/26 10:17:24;;;;;;;2.22;1.00;;;22.00;58.80;;;;;;4954209;29;20063;-77
2022/05/26 10:20:28;;;;;;;1.92;1.10;;;22.10;58.80;;;;;;4954608;29;20102;-74
2022/05/26 10:22:59;;;;;;;1.30;0.90;;;22.10;58.80;;;;;;4955483;29;20019;-76
2022/05/26 10:25:30;;;;;;;1.80;1.10;;;22.20;58.70;;;;;;4954478;29;20089;-75
2022/05/26 10:28:10;;;;;;;0.98;0.85;;;22.20;58.60;;;;;;4954898;29;20114;-75
2022/05/26 10:30:58;;;;;;;1.10;0.90;;;22.30;58.60;;;;;;4954846;29;20503;-76
2022/05/26 10:33:34;;;;;;;0.80;0.77;;;22.30;58.50;;;;;;4954702;29;20515;-76
2022/05/26 10:36:09;;;;;;;1.42;0.98;;;22.40;58.50;;;;;;4938431;29;20055;-77
2022/05/26 10:38:56;;;;;;;1.35;0.93;;;22.50;58.40;;;;;;4938699;29;20077;-75
2022/05/26 10:41:41;;;;;;;1.20;0.90;;;22.50;58.40;;;;;;4938604;29;20121;-76
2022/05/26 10:44:29;;;;;;;1.30;0.98;;;22.60;58.30;;;;;;4954407;29;20023;-76
2022/05/26 10:47:00;;;;;;;1.52;1.00;;;22.60;58.30;;;;;;4954052;29;20106;-75
2022/05/26 10:49:36;;;;;;;1.02;0.75;;;22.70;58.30;;;;;;4955529;28;20034;-76
2022/05/26 10:52:26;;;;;;;2.40;1.05;;;22.70;58.30;;;;;;4938593;29;20190;-75
2022/05/26 10:55:07;;;;;;;1.20;0.80;;;22.80;58.30;;;;;;4953927;29;20023;-76
2022/05/26 10:57:38;;;;;;;1.50;0.85;;;22.80;58.20;;;;;;4955519;28;20037;-75
2022/05/26 11:00:13;;;;;;;1.10;0.95;;;22.90;58.20;;;;;;4954281;29;20070;-77
2022/05/26 11:02:51;;;;;;;;;;;22.90;58.10;;;;;;4938521;29;20023;-76
2022/05/26 11:05:30;;;;;;;1.08;0.90;;;22.90;58.10;;;;;;4955024;29;19917;-76
2022/05/26 11:08:24;;;;;;;1.88;0.80;;;23.00;58.00;;;;;;4953982;29;20039;-75
2022/05/26 11:11:15;;;;;;;1.90;0.82;;;23.00;58.80;;;;;;4953900;28;20023;-77
2022/05/26 11:13:55;;;;;;;1.30;0.90;;;23.10;58.10;;;;;;4968976;28;20035;-76
2022/05/26 11:19:23;;;;;;;1.73;0.90;;;23.10;58.10;;;;;;4954623;28;20031;-76
2022/05/26 11:21:51;;;;;;;1.15;0.80;;;23.20;58.10;;;;;;4954645;28;20059;-76
2022/05/26 11:24:17;;;;;;;0.73;0.73;;;23.20;58.20;;;;;;4955176;28;20023;-76
2022/05/26 11:27:17;;;;;;;2.28;0.90;;;23.20;58.10;;;;;;4953553;29;20035;-76
2022/05/26 11:36:07;;;;;;;1.13;0.90;;;23.20;58.20;;;;;;4954700;28;20023;-76
2022/05/26 11:38:30;;;;;;;;;;;23.30;58.00;;;;;;4954205;29;20036;-78
2022/05/26 11:41:02;;;;;;;0.93;0.77;;;23.40;58.10;;;;;;4954581;29;19914;-76
2022/05/26 11:43:36;;;;;;;0.73;0.73;;;23.40;58.10;;;;;;4937604;29;20034;-76
2022/05/26 11:46:01;;;;;;;1.73;0.93;;;23.40;58.10;;;;;;4938384;29;20315;-75
2022/05/26 11:48:30;;;;;;;1.65;1.10;;;23.40;58.10;;;;;;4938092;29;20479;-76
2022/05/26 11:51:00;;;;;;;0.95;0.70;;;23.50;58.10;;;;;;4937014;29;20035;-76
2022/05/26 11:53:39;;;;;;;1.48;0.80;;;23.50;58.10;;;;;;4953288;29;20031;-75
2022/05/26 11:56:24;;;;;;;1.75;0.85;;;23.50;58.10;;;;;;4953568;29;20027;-75
2022/05/26 11:59:20;;;;;;;1.45;0.90;;;23.50;58.10;;;;;;4937699;29;20034;-75
2022/05/26 12:01:59;;;;;;;2.45;1.17;;;23.50;58.10;;;;;;4953582;29;20035;-76
2022/05/26 12:04:34;;;;;;;1.35;0.93;;;23.60;58.10;;;;;;4937097;29;20324;-76
2022/05/26 12:07:14;;;;;;;1.45;0.85;;;23.60;58.00;;;;;;4952669;29;20082;-77
2022/05/26 12:09:48;;;;;;;1.58;0.80;;;23.60;58.10;;;;;;4953864;29;20119;-76
2022/05/26 12:12:16;;;;;;;1.23;0.88;;;23.70;58.10;;;;;;4937118;29;20122;-75
2022/05/26 12:14:54;;;;;;;1.23;0.85;;;23.70;58.00;;;;;;4936930;29;20033;-74
2022/05/26 12:17:39;;;;;;;1.45;0.80;;;23.70;58.00;;;;;;4954378;28;20051;-75
2022/05/26 12:20:11;;;;;;;0.90;0.80;;;23.80;58.10;;;;;;4936759;29;20043;-75
2022/05/26 12:22:41;;;;;;;1.75;0.73;;;23.80;58.00;;;;;;4952733;29;20033;-76
2022/05/26 12:25:29;;;;;;;0.98;0.73;;;23.80;58.00;;;;;;4936521;29;20460;-75
2022/05/26 12:28:21;;;;;;;0.63;0.63;;;23.80;58.00;;;;;;4953892;29;20106;-75
2022/05/26 12:30:48;;;;;;;1.88;0.80;;;23.80;58.00;;;;;;4935316;29;20038;-76
2022/05/26 12:33:23;;;;;;;0.77;0.77;;;23.90;57.90;;;;;;4953473;28;20074;-75
2022/05/26 12:35:57;;;;;;;1.50;0.85;;;23.90;58.00;;;;;;4952113;29;20027;-76
2022/05/26 12:38:44;;;;;;;0.93;0.70;;;23.90;58.00;;;;;;4954107;28;20558;-75
2022/05/26 12:41:42;;;;;;;1.65;0.88;;;23.90;58.00;;;;;;4952169;29;20054;-75
2022/05/26 12:44:32;;;;;;;1.30;0.70;;;24.00;58.00;;;;;;4953336;28;20353;-77
2022/05/26 12:47:16;;;;;;;0.82;0.70;;;24.00;57.90;;;;;;4952273;29;20122;-75
2022/05/26 12:50:17;;;;;;;1.30;0.60;;;24.00;58.00;;;;;;4953380;28;20027;-75
2022/05/26 12:53:21;;;;;;;1.30;0.70;;;24.00;58.00;;;;;;4951915;29;20075;-76
2022/05/26 12:56:00;;;;;;;0.60;0.60;;;24.00;58.00;;;;;;4952127;29;20106;-76
2022/05/26 12:58:32;;;;;;;0.70;0.70;;;24.00;57.80;;;;;;4951769;29;20043;-76
2022/05/26 13:01:03;;;;;;;1.48;0.90;;;24.10;57.90;;;;;;4951934;29;20098;-76
2022/05/26 13:03:39;;;;;;;2.25;1.00;;;24.10;57.80;;;;;;4936438;29;20031;-75
2022/05/26 13:06:09;;;;;;;1.30;0.73;;;24.10;57.80;;;;;;4953602;28;20051;-75
2022/05/26 13:09:27;;;;;;;1.67;0.80;;;24.10;57.80;;;;;;4951763;29;20114;-75
2022/05/26 13:12:04;;;;;;;1.23;0.55;;;24.10;57.90;;;;;;4930550;29;20097;-75
2022/05/26 13:14:36;;;;;;;0.75;0.70;;;24.20;57.80;;;;;;4951579;29;20027;-75
2022/05/26 13:17:12;;;;;;;0.95;0.70;;;24.20;57.70;;;;;;4952560;28;20051;-76
2022/05/26 13:19:47;;;;;;;1.33;0.80;;;24.20;57.80;;;;;;4952680;28;20086;-76
2022/05/26 13:22:34;;;;;;;1.13;0.73;;;24.20;57.70;;;;;;4951522;29;20031;-75
2022/05/26 13:25:16;;;;;;;1.58;0.70;;;24.20;57.80;;;;;;4951542;29;20020;-75
2022/05/26 13:28:02;;;;;;;1.52;0.80;;;24.20;57.70;;;;;;4935281;29;20106;-76
2022/05/26 13:33:44;;;;;;;1.92;0.80;;;24.30;57.60;;;;;;4951593;29;20063;-75
2022/05/26 13:36:20;;;;;;;2.03;0.90;;;24.30;57.50;;;;;;4951233;29;20038;-77
2022/05/26 13:38:46;;;;;;;2.75;0.90;;;24.40;57.50;;;;;;4952468;29;20024;-76
2022/05/26 13:41:18;;;;;;;2.63;1.10;;;24.40;57.50;;;;;;4951149;29;20085;-75
2022/05/26 13:43:46;;;;;;;2.25;0.90;;;24.40;57.40;;;;;;4952502;28;20023;-76
2022/05/26 13:46:21;;;;;;;1.88;0.90;;;24.40;57.30;;;;;;4951104;29;20122;-76
2022/05/26 13:48:53;;;;;;;2.42;1.08;;;24.40;57.30;;;;;;4951196;29;20031;-75
2022/05/26 13:51:20;;;;;;;2.40;1.13;;;24.40;57.20;;;;;;4950851;29;20365;-76
2022/05/26 13:53:47;;;;;;;3.45;1.30;;;24.50;57.30;;;;;;4952388;28;20039;-75